createdAt,value
2023-05-05T00:00:05.386Z,93143.00
2023-05-05T00:01:05.370Z,93143.00
2023-05-05T00:02:05.405Z,93141.00
2023-05-05T00:03:05.454Z,93139.00
2023-05-05T00:04:05.583Z,93139.00
2023-05-05T00:05:05.500Z,93139.00
2023-05-05T00:06:05.636Z,93137.00
2023-05-05T00:07:05.566Z,93137.00
2023-05-05T00:08:05.596Z,93139.00
2023-05-05T00:09:05.706Z,93139.00
2023-05-05T00:10:05.768Z,93137.00
2023-05-05T00:11:05.707Z,93137.00
2023-05-05T00:12:05.739Z,93135.00
2023-05-05T00:13:05.833Z,93137.00
2023-05-05T00:14:05.813Z,93131.00
2023-05-05T00:15:05.842Z,93129.00
2023-05-05T00:16:06.002Z,93131.00
2023-05-05T00:17:05.977Z,93129.00
2023-05-05T00:18:06.495Z,93129.00
2023-05-05T00:19:06.067Z,93131.00
2023-05-05T00:20:06.174Z,93133.00
2023-05-05T00:21:06.061Z,93133.00
2023-05-05T00:22:06.100Z,93133.00
2023-05-05T00:23:06.147Z,93129.00
2023-05-05T00:24:06.198Z,93129.00
2023-05-05T00:25:06.224Z,93133.00
2023-05-05T00:26:06.319Z,93133.00
2023-05-05T00:27:06.269Z,93133.00
2023-05-05T00:28:06.298Z,93129.00
2023-05-05T00:29:06.332Z,93129.00
2023-05-05T00:30:06.514Z,93129.00
2023-05-05T00:31:06.457Z,93133.00
2023-05-05T00:32:06.952Z,93131.00
2023-05-05T00:33:06.488Z,93129.00
2023-05-05T00:34:06.526Z,93131.00
2023-05-05T00:35:07.464Z,93129.00
2023-05-05T00:36:06.971Z,93127.00
2023-05-05T00:37:06.631Z,93127.00
2023-05-05T00:38:06.664Z,93125.00
2023-05-05T00:39:06.829Z,93121.00
2023-05-05T00:40:06.984Z,93121.00
2023-05-05T00:41:06.789Z,93123.00
2023-05-05T00:42:06.826Z,93127.00
2023-05-05T00:43:06.843Z,93129.00
2023-05-05T00:44:06.901Z,93131.00
2023-05-05T00:45:06.927Z,93129.00
2023-05-05T00:46:07.060Z,93131.00
2023-05-05T00:47:07.007Z,93127.00
2023-05-05T00:48:07.050Z,93131.00
2023-05-05T00:49:07.091Z,93129.00
2023-05-05T00:50:07.420Z,93127.00
2023-05-05T00:51:07.146Z,93123.00
2023-05-05T00:52:07.186Z,93123.00
2023-05-05T00:53:07.212Z,93123.00
2023-05-05T00:54:07.322Z,93125.00
2023-05-05T00:55:07.283Z,93125.00
2023-05-05T00:56:07.404Z,93127.00
2023-05-05T00:57:07.355Z,93123.00
2023-05-05T00:58:07.391Z,93123.00
2023-05-05T00:59:07.431Z,93123.00
2023-05-05T01:00:07.594Z,93123.00
2023-05-05T01:01:07.691Z,93121.00
2023-05-05T01:02:07.545Z,93119.00
2023-05-05T01:03:07.640Z,93119.00
2023-05-05T01:04:07.720Z,93121.00
2023-05-05T01:05:07.631Z,93121.00
2023-05-05T01:06:07.668Z,93123.00
2023-05-05T01:07:07.688Z,93129.00
2023-05-05T01:08:07.792Z,93129.00
2023-05-05T01:09:07.752Z,93127.00
2023-05-05T01:10:18.876Z,93129.00
2023-05-05T01:11:08.838Z,93127.00
2023-05-05T01:12:07.739Z,93121.00
2023-05-05T01:13:07.753Z,93119.00
2023-05-05T01:14:07.704Z,93121.00
2023-05-05T01:15:07.672Z,93123.00
2023-05-05T01:16:07.674Z,93125.00
2023-05-05T01:17:07.593Z,93127.00
2023-05-05T01:18:07.707Z,93127.00
2023-05-05T01:19:07.536Z,93129.00
2023-05-05T01:20:07.843Z,93129.00
2023-05-05T01:21:07.578Z,93129.00
2023-05-05T01:22:07.608Z,93129.00
2023-05-05T01:23:07.627Z,93129.00
2023-05-05T01:24:07.666Z,93129.00
2023-05-05T01:25:07.658Z,93131.00
2023-05-05T01:26:07.687Z,93131.00
2023-05-05T01:27:07.684Z,93131.00
2023-05-05T01:28:07.701Z,93131.00
2023-05-05T01:29:07.705Z,93131.00
2023-05-05T01:30:07.920Z,93131.00
2023-05-05T01:31:07.728Z,93133.00
2023-05-05T01:32:07.718Z,93131.00
2023-05-05T01:33:07.724Z,93131.00
2023-05-05T01:34:07.773Z,93129.00
2023-05-05T01:35:07.762Z,93133.00
2023-05-05T01:36:07.789Z,93129.00
2023-05-05T01:37:07.809Z,93133.00
2023-05-05T01:38:07.838Z,93131.00
2023-05-05T01:39:07.854Z,93131.00
2023-05-05T01:40:08.149Z,93131.00
2023-05-05T01:41:07.908Z,93131.00
2023-05-05T01:42:07.932Z,93129.00
2023-05-05T01:43:08.054Z,93129.00
2023-05-05T01:44:07.998Z,93131.00
2023-05-05T01:45:08.007Z,93131.00
2023-05-05T01:46:08.563Z,93133.00
2023-05-05T01:47:08.089Z,93137.00
2023-05-05T01:48:08.128Z,93137.00
2023-05-05T01:49:08.161Z,93139.00
2023-05-05T01:50:08.437Z,93137.00
2023-05-05T01:51:08.231Z,93137.00
2023-05-05T01:52:08.270Z,93135.00
2023-05-05T01:53:08.310Z,93133.00
2023-05-05T01:54:08.336Z,93133.00
2023-05-05T01:55:08.390Z,93131.00
2023-05-05T01:56:08.443Z,93133.00
2023-05-05T01:57:08.463Z,93129.00
2023-05-05T01:58:08.489Z,93127.00
2023-05-05T01:59:08.539Z,93133.00
2023-05-05T02:00:08.770Z,93137.00
2023-05-05T02:01:08.639Z,93135.00
2023-05-05T02:02:08.611Z,93133.00
2023-05-05T02:03:08.703Z,93133.00
2023-05-05T02:04:08.651Z,93135.00
2023-05-05T02:05:08.674Z,93131.00
2023-05-05T02:06:08.725Z,93129.00
2023-05-05T02:07:08.775Z,93131.00
2023-05-05T02:08:08.786Z,93133.00
2023-05-05T02:09:08.814Z,93129.00
2023-05-05T02:10:09.069Z,93133.00
2023-05-05T02:11:08.889Z,93133.00
2023-05-05T02:12:08.927Z,93133.00
2023-05-05T02:13:09.082Z,93135.00
2023-05-05T02:14:09.046Z,93133.00
2023-05-05T02:15:09.023Z,93133.00
2023-05-05T02:16:09.115Z,93133.00
2023-05-05T02:17:09.079Z,93135.00
2023-05-05T02:18:09.113Z,93133.00
2023-05-05T02:19:09.143Z,93135.00
2023-05-05T02:20:09.304Z,93131.00
2023-05-05T02:21:09.215Z,93131.00
2023-05-05T02:22:09.265Z,93131.00
2023-05-05T02:23:09.301Z,93133.00
2023-05-05T02:24:09.995Z,93129.00
2023-05-05T02:25:09.359Z,93129.00
2023-05-05T02:26:09.351Z,93129.00
2023-05-05T02:27:09.375Z,93129.00
2023-05-05T02:28:09.457Z,93129.00
2023-05-05T02:29:09.417Z,93133.00
2023-05-05T02:30:09.734Z,93131.00
2023-05-05T02:31:09.551Z,93135.00
2023-05-05T02:32:09.480Z,93133.00
2023-05-05T02:33:09.531Z,93135.00
2023-05-05T02:34:09.525Z,93135.00
2023-05-05T02:35:09.519Z,93133.00
2023-05-05T02:36:09.532Z,93133.00
2023-05-05T02:37:09.521Z,93135.00
2023-05-05T02:38:09.556Z,93133.00
2023-05-05T02:39:09.588Z,93135.00
2023-05-05T02:40:09.798Z,93133.00
2023-05-05T02:41:09.647Z,93133.00
2023-05-05T02:42:09.650Z,93133.00
2023-05-05T02:43:09.711Z,93131.00
2023-05-05T02:44:09.720Z,93133.00
2023-05-05T02:45:09.785Z,93135.00
2023-05-05T02:46:09.763Z,93137.00
2023-05-05T02:47:09.794Z,93137.00
2023-05-05T02:48:09.816Z,93137.00
2023-05-05T02:49:09.854Z,93139.00
2023-05-05T02:50:10.191Z,93137.00
2023-05-05T02:51:09.924Z,93141.00
2023-05-05T02:52:09.947Z,93139.00
2023-05-05T02:53:10.034Z,93141.00
2023-05-05T02:54:10.010Z,93143.00
2023-05-05T02:55:10.041Z,93141.00
2023-05-05T02:56:10.065Z,93143.00
2023-05-05T02:57:11.014Z,93145.00
2023-05-05T02:58:10.100Z,93139.00
2023-05-05T02:59:10.137Z,93143.00
2023-05-05T03:00:10.291Z,93143.00
2023-05-05T03:01:10.158Z,93141.00
2023-05-05T03:02:10.156Z,93141.00
2023-05-05T03:03:10.262Z,93135.00
2023-05-05T03:04:10.197Z,93133.00
2023-05-05T03:05:10.211Z,93131.00
2023-05-05T03:06:10.232Z,93137.00
2023-05-05T03:07:10.250Z,93131.00
2023-05-05T03:08:10.297Z,93131.00
2023-05-05T03:09:10.294Z,93131.00
2023-05-05T03:10:10.400Z,93133.00
2023-05-05T03:11:10.334Z,93137.00
2023-05-05T03:12:10.351Z,93133.00
2023-05-05T03:13:10.659Z,93137.00
2023-05-05T03:14:11.017Z,93135.00
2023-05-05T03:15:10.447Z,93135.00
2023-05-05T03:16:10.535Z,93135.00
2023-05-05T03:17:11.524Z,93135.00
2023-05-05T03:18:10.578Z,93135.00
2023-05-05T03:19:10.609Z,93135.00
2023-05-05T03:20:10.650Z,93137.00
2023-05-05T03:21:10.687Z,93139.00
2023-05-05T03:22:10.731Z,93137.00
2023-05-05T03:23:10.731Z,93137.00
2023-05-05T03:24:10.772Z,93141.00
2023-05-05T03:25:11.021Z,93141.00
2023-05-05T03:26:10.937Z,93139.00
2023-05-05T03:27:10.872Z,93139.00
2023-05-05T03:28:10.900Z,93137.00
2023-05-05T03:29:10.913Z,93139.00
2023-05-05T03:30:11.005Z,93137.00
2023-05-05T03:31:10.985Z,93137.00
2023-05-05T03:32:11.017Z,93139.00
2023-05-05T03:33:10.995Z,93135.00
2023-05-05T03:34:11.040Z,93135.00
2023-05-05T03:35:11.034Z,93137.00
2023-05-05T03:36:12.021Z,93137.00
2023-05-05T03:37:11.023Z,93133.00
2023-05-05T03:38:11.083Z,93131.00
2023-05-05T03:39:11.016Z,93129.00
2023-05-05T03:40:11.522Z,93129.00
2023-05-05T03:41:10.978Z,93129.00
2023-05-05T03:42:10.964Z,93129.00
2023-05-05T03:43:10.966Z,93129.00
2023-05-05T03:44:10.952Z,93131.00
2023-05-05T03:45:10.931Z,93131.00
2023-05-05T03:46:10.944Z,93131.00
2023-05-05T03:47:10.870Z,93131.00
2023-05-05T03:48:10.857Z,93131.00
2023-05-05T03:49:10.832Z,93129.00
2023-05-05T03:50:10.781Z,93129.00
2023-05-05T03:51:10.759Z,93131.00
2023-05-05T03:52:11.740Z,93133.00
2023-05-05T03:53:10.720Z,93133.00
2023-05-05T03:54:10.666Z,93137.00
2023-05-05T03:55:10.663Z,93135.00
2023-05-05T03:56:10.639Z,93135.00
2023-05-05T03:57:10.696Z,93135.00
2023-05-05T03:58:10.573Z,93137.00
2023-05-05T03:59:10.605Z,93131.00
2023-05-05T04:00:10.546Z,93129.00
2023-05-05T04:01:10.482Z,93135.00
2023-05-05T04:02:10.471Z,93135.00
2023-05-05T04:03:10.769Z,93135.00
2023-05-05T04:04:10.405Z,93135.00
2023-05-05T04:05:10.343Z,93137.00
2023-05-05T04:06:10.534Z,93135.00
2023-05-05T04:07:10.276Z,93139.00
2023-05-05T04:08:10.243Z,93135.00
2023-05-05T04:09:10.269Z,93137.00
2023-05-05T04:10:10.284Z,93139.00
2023-05-05T04:11:10.146Z,93135.00
2023-05-05T04:12:10.112Z,93137.00
2023-05-05T04:13:10.107Z,93137.00
2023-05-05T04:14:10.059Z,93137.00
2023-05-05T04:15:10.030Z,93135.00
2023-05-05T04:16:10.014Z,93135.00
2023-05-05T04:17:09.949Z,93135.00
2023-05-05T04:18:10.076Z,93135.00
2023-05-05T04:19:09.902Z,93131.00
2023-05-05T04:20:10.143Z,93133.00
2023-05-05T04:21:09.829Z,93133.00
2023-05-05T04:22:09.795Z,93133.00
2023-05-05T04:23:09.793Z,93131.00
2023-05-05T04:24:09.798Z,93133.00
2023-05-05T04:25:09.759Z,93135.00
2023-05-05T04:26:09.727Z,93137.00
2023-05-05T04:27:09.706Z,93137.00
2023-05-05T04:28:09.661Z,93135.00
2023-05-05T04:29:09.615Z,93135.00
2023-05-05T04:30:09.732Z,93137.00
2023-05-05T04:31:09.582Z,93137.00
2023-05-05T04:32:09.524Z,93137.00
2023-05-05T04:33:09.498Z,93133.00
2023-05-05T04:34:09.474Z,93137.00
2023-05-05T04:35:09.437Z,93137.00
2023-05-05T04:36:09.404Z,93137.00
2023-05-05T04:37:09.383Z,93135.00
2023-05-05T04:38:09.552Z,93137.00
2023-05-05T04:39:09.316Z,93139.00
2023-05-05T04:40:09.564Z,93139.00
2023-05-05T04:41:09.278Z,93139.00
2023-05-05T04:42:09.220Z,93143.00
2023-05-05T04:43:09.190Z,93145.00
2023-05-05T04:44:10.062Z,93145.00
2023-05-05T04:45:09.182Z,93149.00
2023-05-05T04:46:09.114Z,93147.00
2023-05-05T04:47:09.072Z,93145.00
2023-05-05T04:48:09.048Z,93143.00
2023-05-05T04:49:08.997Z,93141.00
2023-05-05T04:50:09.175Z,93143.00
2023-05-05T04:51:08.956Z,93139.00
2023-05-05T04:52:08.915Z,93141.00
2023-05-05T04:53:08.902Z,93141.00
2023-05-05T04:54:08.859Z,93143.00
2023-05-05T04:55:08.851Z,93141.00
2023-05-05T04:56:08.859Z,93141.00
2023-05-05T04:57:09.553Z,93143.00
2023-05-05T04:58:08.771Z,93143.00
2023-05-05T04:59:08.771Z,93147.00
2023-05-05T05:00:09.003Z,93147.00
2023-05-05T05:01:08.694Z,93147.00
2023-05-05T05:02:08.697Z,93149.00
2023-05-05T05:03:08.779Z,93149.00
2023-05-05T05:04:08.621Z,93153.00
2023-05-05T05:05:08.692Z,93155.00
2023-05-05T05:06:08.613Z,93153.00
2023-05-05T05:07:08.601Z,93155.00
2023-05-05T05:08:08.604Z,93157.00
2023-05-05T05:09:08.563Z,93159.00
2023-05-05T05:10:08.720Z,93159.00
2023-05-05T05:11:08.547Z,93159.00
2023-05-05T05:12:08.513Z,93163.00
2023-05-05T05:13:09.632Z,93163.00
2023-05-05T05:14:08.472Z,93163.00
2023-05-05T05:15:08.477Z,93163.00
2023-05-05T05:16:08.421Z,93165.00
2023-05-05T05:17:08.360Z,93168.00
2023-05-05T05:18:08.350Z,93163.00
2023-05-05T05:19:08.281Z,93159.00
2023-05-05T05:20:08.477Z,93159.00
2023-05-05T05:21:08.222Z,93163.00
2023-05-05T05:22:08.196Z,93159.00
2023-05-05T05:23:08.152Z,93157.00
2023-05-05T05:24:08.178Z,93157.00
2023-05-05T05:25:08.111Z,93159.00
2023-05-05T05:26:08.064Z,93157.00
2023-05-05T05:27:09.838Z,93157.00
2023-05-05T05:28:10.741Z,93159.00
2023-05-05T05:29:08.033Z,93157.00
2023-05-05T05:30:08.078Z,93159.00
2023-05-05T05:31:08.563Z,93159.00
2023-05-05T05:32:07.952Z,93159.00
2023-05-05T05:33:07.929Z,93163.00
2023-05-05T05:34:09.366Z,93165.00
2023-05-05T05:35:07.826Z,93163.00
2023-05-05T05:36:07.816Z,93159.00
2023-05-05T05:37:07.796Z,93157.00
2023-05-05T05:38:07.765Z,93159.00
2023-05-05T05:39:07.751Z,93159.00
2023-05-05T05:40:07.938Z,93155.00
2023-05-05T05:41:07.727Z,93157.00
2023-05-05T05:42:07.708Z,93161.00
2023-05-05T05:43:07.708Z,93155.00
2023-05-05T05:44:07.693Z,93163.00
2023-05-05T05:45:07.683Z,93159.00
2023-05-05T05:46:09.382Z,93161.00
2023-05-05T05:47:07.650Z,93161.00
2023-05-05T05:48:07.652Z,93161.00
2023-05-05T05:49:07.667Z,93159.00
2023-05-05T05:50:07.892Z,93157.00
2023-05-05T05:51:07.597Z,93159.00
2023-05-05T05:52:07.571Z,93165.00
2023-05-05T05:53:07.542Z,93163.00
2023-05-05T05:54:07.523Z,93165.00
2023-05-05T05:55:07.522Z,93159.00
2023-05-05T05:56:07.496Z,93157.00
2023-05-05T05:57:07.515Z,93157.00
2023-05-05T05:58:07.531Z,93157.00
2023-05-05T05:59:07.575Z,93155.00
2023-05-05T06:00:07.966Z,93159.00
2023-05-05T06:01:07.647Z,93159.00
2023-05-05T06:02:07.750Z,93155.00
2023-05-05T06:03:08.040Z,93157.00
2023-05-05T06:04:07.970Z,93159.00
2023-05-05T06:05:07.814Z,93161.00
2023-05-05T06:06:07.875Z,93163.00
2023-05-05T06:07:07.974Z,93159.00
2023-05-05T06:08:07.967Z,93155.00
2023-05-05T06:09:08.001Z,93153.00
2023-05-05T06:10:22.816Z,93151.00
2023-05-05T06:11:09.031Z,93147.00
2023-05-05T06:12:08.014Z,93153.00
2023-05-05T06:13:08.097Z,93147.00
2023-05-05T06:14:07.984Z,93153.00
2023-05-05T06:15:07.961Z,93149.00
2023-05-05T06:16:08.014Z,93153.00
2023-05-05T06:17:07.921Z,93147.00
2023-05-05T06:18:07.918Z,93149.00
2023-05-05T06:19:07.917Z,93149.00
2023-05-05T06:20:08.079Z,93147.00
2023-05-05T06:21:08.067Z,93149.00
2023-05-05T06:22:08.041Z,93153.00
2023-05-05T06:23:08.105Z,93147.00
2023-05-05T06:24:08.094Z,93143.00
2023-05-05T06:25:08.178Z,93145.00
2023-05-05T06:26:08.170Z,93139.00
2023-05-05T06:27:08.582Z,93141.00
2023-05-05T06:28:08.217Z,93137.00
2023-05-05T06:29:09.134Z,93137.00
2023-05-05T06:30:08.506Z,93133.00
2023-05-05T06:31:08.238Z,93133.00
2023-05-05T06:32:08.236Z,93133.00
2023-05-05T06:33:08.266Z,93133.00
2023-05-05T06:34:08.162Z,93127.00
2023-05-05T06:35:08.137Z,93129.00
2023-05-05T06:36:08.110Z,93129.00
2023-05-05T06:37:08.064Z,93127.00
2023-05-05T06:38:08.056Z,93123.00
2023-05-05T06:39:08.100Z,93123.00
2023-05-05T06:40:08.314Z,93119.00
2023-05-05T06:41:08.179Z,93119.00
2023-05-05T06:42:08.202Z,93119.00
2023-05-05T06:43:08.230Z,93117.00
2023-05-05T06:44:08.261Z,93119.00
2023-05-05T06:45:08.277Z,93119.00
2023-05-05T06:46:08.318Z,93117.00
2023-05-05T06:47:08.358Z,93121.00
2023-05-05T06:48:08.445Z,93123.00
2023-05-05T06:49:08.322Z,93119.00
2023-05-05T06:50:08.508Z,93117.00
2023-05-05T06:51:08.353Z,93121.00
2023-05-05T06:52:08.391Z,93121.00
2023-05-05T06:53:08.413Z,93121.00
2023-05-05T06:54:08.392Z,93117.00
2023-05-05T06:55:08.338Z,93112.00
2023-05-05T06:56:08.330Z,93115.00
2023-05-05T06:57:08.313Z,93112.00
2023-05-05T06:58:08.330Z,93112.00
2023-05-05T06:59:08.280Z,93112.00
2023-05-05T07:00:08.445Z,93112.00
2023-05-05T07:01:08.268Z,93110.00
2023-05-05T07:02:08.229Z,93108.00
2023-05-05T07:03:08.214Z,93108.00
2023-05-05T07:04:08.221Z,93106.00
2023-05-05T07:05:08.153Z,93104.00
2023-05-05T07:06:08.151Z,93104.00
2023-05-05T07:07:08.084Z,93102.00
2023-05-05T07:08:08.036Z,93100.00
2023-05-05T07:09:08.240Z,93104.00
2023-05-05T07:10:08.030Z,93100.00
2023-05-05T07:11:08.149Z,93102.00
2023-05-05T07:12:07.927Z,93098.00
2023-05-05T07:13:07.940Z,93102.00
2023-05-05T07:14:07.844Z,93100.00
2023-05-05T07:15:23.466Z,93098.00
2023-05-05T07:16:08.777Z,93100.00
2023-05-05T07:17:07.710Z,93098.00
2023-05-05T07:18:07.699Z,93090.00
2023-05-05T07:19:07.632Z,93098.00
2023-05-05T07:20:07.925Z,93098.00
2023-05-05T07:21:07.537Z,93090.00
2023-05-05T07:22:07.493Z,93088.00
2023-05-05T07:23:07.449Z,93086.00
2023-05-05T07:24:07.410Z,93086.00
2023-05-05T07:25:07.449Z,93082.00
2023-05-05T07:26:07.397Z,93084.00
2023-05-05T07:27:07.361Z,93082.00
2023-05-05T07:28:07.269Z,93082.00
2023-05-05T07:29:07.614Z,93080.00
2023-05-05T07:30:12.387Z,93076.00
2023-05-05T07:31:08.131Z,93076.00
2023-05-05T07:32:07.132Z,93078.00
2023-05-05T07:33:07.123Z,93078.00
2023-05-05T07:34:07.020Z,93078.00
2023-05-05T07:35:06.965Z,93075.00
2023-05-05T07:36:06.937Z,93076.00
2023-05-05T07:37:06.878Z,93078.00
2023-05-05T07:38:07.717Z,93075.00
2023-05-05T07:39:06.811Z,93075.00
2023-05-05T07:40:07.148Z,93073.00
2023-05-05T07:41:06.814Z,93071.00
2023-05-05T07:42:06.675Z,93069.00
2023-05-05T07:43:06.633Z,93065.00
2023-05-05T07:44:06.581Z,93063.00
2023-05-05T07:45:06.598Z,93063.00
2023-05-05T07:46:06.533Z,93061.00
2023-05-05T07:47:06.452Z,93063.00
2023-05-05T07:48:07.169Z,93061.00
2023-05-05T07:49:06.357Z,93057.00
2023-05-05T07:50:06.703Z,93057.00
2023-05-05T07:51:06.267Z,93055.00
2023-05-05T07:52:06.236Z,93055.00
2023-05-05T07:53:14.471Z,93051.00
2023-05-05T07:54:07.130Z,93055.00
2023-05-05T07:55:06.088Z,93047.00
2023-05-05T07:56:06.042Z,93053.00
2023-05-05T07:57:06.128Z,93047.00
2023-05-05T07:58:05.950Z,93047.00
2023-05-05T07:59:05.930Z,93041.00
2023-05-05T08:00:06.049Z,93041.00
2023-05-05T08:01:06.572Z,93039.00
2023-05-05T08:02:05.888Z,93037.00
2023-05-05T08:03:07.054Z,93037.00
2023-05-05T08:04:06.234Z,93035.00
2023-05-05T08:05:06.099Z,93033.00
2023-05-05T08:06:05.874Z,93033.00
2023-05-05T08:07:05.873Z,93033.00
2023-05-05T08:08:05.883Z,93029.00
2023-05-05T08:09:05.852Z,93029.00
2023-05-05T08:10:05.867Z,93027.00
2023-05-05T08:11:05.921Z,93029.00
2023-05-05T08:12:05.858Z,93025.00
2023-05-05T08:13:05.949Z,93025.00
2023-05-05T08:14:05.838Z,93021.00
2023-05-05T08:15:06.013Z,93021.00
2023-05-05T08:16:05.949Z,93018.00
2023-05-05T08:17:05.802Z,93018.00
2023-05-05T08:18:05.867Z,93016.00
2023-05-05T08:19:14.508Z,93014.00
2023-05-05T08:20:06.769Z,93010.00
2023-05-05T08:21:05.723Z,93014.00
2023-05-05T08:22:05.676Z,93012.00
2023-05-05T08:23:05.649Z,93012.00
2023-05-05T08:24:05.600Z,93006.00
2023-05-05T08:25:05.642Z,93006.00
2023-05-05T08:26:05.518Z,93006.00
2023-05-05T08:27:05.478Z,93006.00
2023-05-05T08:28:06.135Z,93002.00
2023-05-05T08:29:05.536Z,93002.00
2023-05-05T08:30:05.496Z,93002.00
2023-05-05T08:31:05.603Z,92998.00
2023-05-05T08:32:05.544Z,93000.00
2023-05-05T08:33:05.624Z,93000.00
2023-05-05T08:34:05.643Z,92996.00
2023-05-05T08:35:05.744Z,92994.00
2023-05-05T08:36:06.637Z,92996.00
2023-05-05T08:37:05.679Z,92994.00
2023-05-05T08:38:05.736Z,92994.00
2023-05-05T08:39:05.747Z,92994.00
2023-05-05T08:40:05.843Z,92994.00
2023-05-05T08:41:05.799Z,92994.00
2023-05-05T08:42:06.158Z,92988.00
2023-05-05T08:43:05.854Z,92992.00
2023-05-05T08:44:05.868Z,92986.00
2023-05-05T08:45:06.278Z,92986.00
2023-05-05T08:46:05.853Z,92984.00
2023-05-05T08:47:05.979Z,92982.00
2023-05-05T08:48:05.838Z,92976.00
2023-05-05T08:49:05.775Z,92974.00
2023-05-05T08:50:05.731Z,92974.00
2023-05-05T08:51:05.815Z,92974.00
2023-05-05T08:52:05.693Z,92973.00
2023-05-05T08:53:05.712Z,92973.00
2023-05-05T08:54:05.657Z,92973.00
2023-05-05T08:55:05.721Z,92973.00
2023-05-05T08:56:05.603Z,92971.00
2023-05-05T08:57:05.573Z,92969.00
2023-05-05T08:58:05.548Z,92965.00
2023-05-05T08:59:05.520Z,92967.00
2023-05-05T09:00:05.508Z,92967.00
2023-05-05T09:01:05.654Z,92965.00
2023-05-05T09:02:06.174Z,92965.00
2023-05-05T09:03:05.566Z,92965.00
2023-05-05T09:04:05.427Z,92963.00
2023-05-05T09:05:05.528Z,92965.00
2023-05-05T09:06:05.345Z,92963.00
2023-05-05T09:07:05.343Z,92961.00
2023-05-05T09:08:05.281Z,92963.00
2023-05-05T09:09:06.138Z,92959.00
2023-05-05T09:10:05.220Z,92959.00
2023-05-05T09:11:05.171Z,92957.00
2023-05-05T09:12:05.147Z,92955.00
2023-05-05T09:13:05.160Z,92953.00
2023-05-05T09:14:05.058Z,92951.00
2023-05-05T09:15:05.337Z,92949.00
2023-05-05T09:16:04.994Z,92947.00
2023-05-05T09:17:05.105Z,92947.00
2023-05-05T09:18:05.000Z,92945.00
2023-05-05T09:19:04.908Z,92941.00
2023-05-05T09:20:04.910Z,92939.00
2023-05-05T09:21:04.825Z,92937.00
2023-05-05T09:22:04.905Z,92933.00
2023-05-05T09:23:04.777Z,92935.00
2023-05-05T09:24:08.177Z,92935.00
2023-05-05T09:25:04.794Z,92929.00
2023-05-05T09:26:04.680Z,92929.00
2023-05-05T09:27:04.633Z,92931.00
2023-05-05T09:28:05.174Z,92929.00
2023-05-05T09:29:04.607Z,92927.00
2023-05-05T09:30:04.519Z,92927.00
2023-05-05T09:31:04.501Z,92927.00
2023-05-05T09:32:04.441Z,92924.00
2023-05-05T09:33:04.528Z,92924.00
2023-05-05T09:34:04.402Z,92918.00
2023-05-05T09:35:04.353Z,92916.00
2023-05-05T09:36:04.289Z,92916.00
2023-05-05T09:37:04.267Z,92912.00
2023-05-05T09:38:04.237Z,92912.00
2023-05-05T09:39:04.173Z,92910.00
2023-05-05T09:40:04.137Z,92910.00
2023-05-05T09:41:04.131Z,92906.00
2023-05-05T09:42:04.170Z,92904.00
2023-05-05T09:43:04.047Z,92906.00
2023-05-05T09:44:04.043Z,92902.00
2023-05-05T09:45:04.137Z,92904.00
2023-05-05T09:46:05.108Z,92902.00
2023-05-05T09:47:09.341Z,92900.00
2023-05-05T09:48:05.133Z,92902.00
2023-05-05T09:49:04.164Z,92898.00
2023-05-05T09:50:04.009Z,92900.00
2023-05-05T09:51:04.651Z,92898.00
2023-05-05T09:52:03.926Z,92896.00
2023-05-05T09:53:03.917Z,92900.00
2023-05-05T09:54:03.842Z,92898.00
2023-05-05T09:55:03.809Z,92894.00
2023-05-05T09:56:03.877Z,92898.00
2023-05-05T09:57:03.805Z,92894.00
2023-05-05T09:58:04.610Z,92894.00
2023-05-05T09:59:03.844Z,92892.00
2023-05-05T10:00:04.008Z,92892.00
2023-05-05T10:01:03.872Z,92892.00
2023-05-05T10:02:03.896Z,92892.00
2023-05-05T10:03:04.229Z,92890.00
2023-05-05T10:04:03.930Z,92890.00
2023-05-05T10:05:04.912Z,92888.00
2023-05-05T10:06:04.586Z,92886.00
2023-05-05T10:07:04.760Z,92884.00
2023-05-05T10:08:04.027Z,92882.00
2023-05-05T10:09:03.992Z,92880.00
2023-05-05T10:10:04.009Z,92880.00
2023-05-05T10:11:04.043Z,92878.00
2023-05-05T10:12:04.035Z,92878.00
2023-05-05T10:13:04.134Z,92876.00
2023-05-05T10:14:04.098Z,92874.00
2023-05-05T10:15:04.023Z,92874.00
2023-05-05T10:16:04.046Z,92872.00
2023-05-05T10:17:04.654Z,92871.00
2023-05-05T10:18:07.799Z,92867.00
2023-05-05T10:19:03.971Z,92869.00
2023-05-05T10:20:03.934Z,92867.00
2023-05-05T10:21:04.027Z,92863.00
2023-05-05T10:22:03.844Z,92861.00
2023-05-05T10:23:03.815Z,92861.00
2023-05-05T10:24:03.827Z,92861.00
2023-05-05T10:25:03.728Z,92857.00
2023-05-05T10:26:03.677Z,92857.00
2023-05-05T10:27:03.632Z,92853.00
2023-05-05T10:28:03.590Z,92853.00
2023-05-05T10:29:03.558Z,92847.00
2023-05-05T10:30:03.525Z,92847.00
2023-05-05T10:31:07.825Z,92847.00
2023-05-05T10:32:16.304Z,92849.00
2023-05-05T10:33:18.226Z,92845.00
2023-05-05T10:34:05.474Z,92845.00
2023-05-05T10:35:03.298Z,92843.00
2023-05-05T10:36:03.289Z,92841.00
2023-05-05T10:37:03.324Z,92834.00
2023-05-05T10:38:03.172Z,92832.00
2023-05-05T10:39:03.171Z,92830.00
2023-05-05T10:40:03.196Z,92828.00
2023-05-05T10:41:03.052Z,92826.00
2023-05-05T10:42:03.676Z,92822.00
2023-05-05T10:43:02.963Z,92818.00
2023-05-05T10:44:04.594Z,92818.00
2023-05-05T10:45:03.622Z,92820.00
2023-05-05T10:46:02.962Z,92816.00
2023-05-05T10:47:02.807Z,92818.00
2023-05-05T10:48:02.863Z,92816.00
2023-05-05T10:49:02.739Z,92812.00
2023-05-05T10:50:02.693Z,92812.00
2023-05-05T10:51:02.668Z,92810.00
2023-05-05T10:52:02.709Z,92810.00
2023-05-05T10:53:02.629Z,92808.00
2023-05-05T10:54:02.597Z,92806.00
2023-05-05T10:55:03.173Z,92806.00
2023-05-05T10:56:02.515Z,92802.00
2023-05-05T10:57:02.476Z,92800.00
2023-05-05T10:58:02.446Z,92798.00
2023-05-05T10:59:02.430Z,92798.00
2023-05-05T11:00:02.411Z,92798.00
2023-05-05T11:01:02.447Z,92798.00
2023-05-05T11:02:02.354Z,92794.00
2023-05-05T11:03:02.415Z,92794.00
2023-05-05T11:04:02.407Z,92790.00
2023-05-05T11:05:02.802Z,92794.00
2023-05-05T11:06:02.259Z,92790.00
2023-05-05T11:07:02.237Z,92790.00
2023-05-05T11:08:02.222Z,92787.00
2023-05-05T11:09:02.247Z,92787.00
2023-05-05T11:10:02.149Z,92783.00
2023-05-05T11:11:02.155Z,92781.00
2023-05-05T11:12:02.051Z,92777.00
2023-05-05T11:13:02.083Z,92771.00
2023-05-05T11:14:01.972Z,92773.00
2023-05-05T11:15:01.937Z,92771.00
2023-05-05T11:16:01.909Z,92773.00
2023-05-05T11:17:02.020Z,92767.00
2023-05-05T11:18:04.883Z,92763.00
2023-05-05T11:19:02.691Z,92763.00
2023-05-05T11:20:01.747Z,92761.00
2023-05-05T11:21:01.697Z,92763.00
2023-05-05T11:22:01.731Z,92761.00
2023-05-05T11:23:01.616Z,92757.00
2023-05-05T11:24:01.564Z,92755.00
2023-05-05T11:25:01.565Z,92755.00
2023-05-05T11:26:01.459Z,92751.00
2023-05-05T11:27:01.417Z,92755.00
2023-05-05T11:28:01.388Z,92753.00
2023-05-05T11:29:01.333Z,92753.00
2023-05-05T11:30:01.321Z,92751.00
2023-05-05T11:31:01.375Z,92747.00
2023-05-05T11:32:01.230Z,92747.00
2023-05-05T11:33:01.208Z,92745.00
2023-05-05T11:34:01.109Z,92745.00
2023-05-05T11:35:01.071Z,92745.00
2023-05-05T11:36:01.850Z,92740.00
2023-05-05T11:37:01.006Z,92740.00
2023-05-05T11:38:00.982Z,92740.00
2023-05-05T11:39:00.948Z,92740.00
2023-05-05T11:40:00.939Z,92740.00
2023-05-05T11:41:00.951Z,92738.00
2023-05-05T11:42:03.384Z,92738.00
2023-05-05T11:43:01.840Z,92734.00
2023-05-05T11:44:00.767Z,92736.00